Time;durP1;ratioP1;P1;durP2;ratioP2;P2;SDS_P1;SDS_P2;PMS_P1;PMS_P2;Temp;Humidity;BMP_temperature;BMP_pressure;BME280_temperature;BME280_humidity;BME280_pressure;Samples;Min_cycle;Max_cycle;Signal;HPM_P1;HPM_P2
2023/03/21 00:01:50;;;;;;;3.23;2.20;;;;;;;11.27;53.33;99167.66;5074344;28;40284;-77
2023/03/21 00:04:18;;;;;;;5.13;2.17;;;;;;;11.21;53.24;99146.84;5074242;28;41746;-78
2023/03/21 00:06:46;;;;;;;3.40;2.13;;;;;;;11.22;53.33;99149.41;5094964;28;42224;-81
2023/03/21 00:09:14;;;;;;;3.70;2.30;;;;;;;11.32;53.15;99158.50;5077383;28;42342;-79
2023/03/21 00:11:44;;;;;;;3.10;1.63;;;;;;;11.33;53.46;99159.38;5077792;28;38910;-82
2023/03/21 00:14:13;;;;;;;2.90;1.90;;;;;;;11.31;53.48;99155.94;5094273;28;42458;-80
2023/03/21 00:16:41;;;;;;;4.17;2.23;;;;;;;11.30;53.40;99152.44;5094715;28;42698;-80
2023/03/21 00:19:10;;;;;;;3.47;1.67;;;;;;;11.30;53.45;99149.78;5095525;28;41993;-80
2023/03/21 00:21:41;;;;;;;4.90;2.17;;;;;;;11.31;53.62;99150.66;5074478;28;40179;-78
2023/03/21 00:24:10;;;;;;;4.23;2.13;;;;;;;11.22;53.58;99132.66;5085787;28;41894;-79
2023/03/21 00:26:38;;;;;;;3.67;1.90;;;;;;;11.25;53.88;99140.44;5082973;28;41776;-80
2023/03/21 00:29:07;;;;;;;7.00;2.67;;;;;;;11.29;54.10;99147.22;5094951;28;42239;-82
2023/03/21 00:31:34;;;;;;;3.60;2.07;;;;;;;11.14;53.59;99119.84;5077726;28;39958;-79
2023/03/21 00:34:02;;;;;;;2.57;1.70;;;;;;;11.16;53.99;99131.22;5094503;28;40620;-80
2023/03/21 00:36:31;;;;;;;3.00;1.90;;;;;;;11.24;53.97;99138.72;5094453;28;42766;-82
2023/03/21 00:39:00;;;;;;;4.20;2.57;;;;;;;11.22;53.85;99137.97;5094188;28;43165;-82
2023/03/21 00:41:28;;;;;;;3.67;2.40;;;;;;;11.02;54.17;99102.88;5077658;28;39266;-80
2023/03/21 00:43:56;;;;;;;3.10;2.50;;;;;;;11.16;54.42;99132.06;5076950;28;40827;-79
2023/03/21 00:46:25;;;;;;;3.83;2.00;;;;;;;11.11;54.49;99123.56;5077259;28;42738;-83
2023/03/21 00:48:53;;;;;;;3.17;1.93;;;;;;;11.12;54.25;99114.66;5094175;28;43091;-81
2023/03/21 00:51:25;;;;;;;2.60;1.80;;;;;;;11.13;54.50;99121.63;5094577;28;40008;-80
2023/03/21 00:53:54;;;;;;;2.33;1.63;;;;;;;11.02;54.56;99102.88;5091975;28;41837;-79
2023/03/21 00:56:23;;;;;;;3.17;1.50;;;;;;;11.02;54.29;99102.03;5077415;28;41525;-81
2023/03/21 00:58:51;;;;;;;4.63;2.00;;;;;;;11.10;54.53;99113.91;5093989;28;42034;-81
2023/03/21 01:01:19;;;;;;;3.27;2.00;;;;;;;11.11;54.43;99110.31;5077599;28;40311;-80
2023/03/21 01:03:49;;;;;;;3.97;1.73;;;;;;;11.13;54.53;99110.19;5076929;28;41529;-83
2023/03/21 01:06:29;;;;;;;2.17;1.87;;;;;;;11.03;54.31;99093.13;5077042;28;41798;-80
2023/03/21 01:08:56;;;;;;;3.87;1.60;;;;;;;11.09;54.28;99096.28;5076631;28;42565;-81
2023/03/21 01:11:27;;;;;;;2.20;1.27;;;;;;;11.07;53.97;99092.03;5094270;28;40950;-80
2023/03/21 01:13:56;;;;;;;4.90;1.73;;;;;;;11.15;54.08;99103.00;5077343;28;40739;-81
2023/03/21 01:16:24;;;;;;;4.17;1.53;;;;;;;11.09;53.95;99104.25;5076894;28;41692;-81
2023/03/21 01:18:54;;;;;;;1.70;1.33;;;;;;;11.11;54.38;99101.50;5076723;28;41224;-78
2023/03/21 01:21:23;;;;;;;1.73;1.23;;;;;;;11.07;54.13;99106.13;5094076;28;39596;-79
2023/03/21 01:23:50;;;;;;;4.70;1.40;;;;;;;11.04;54.55;99102.78;5076270;28;40613;-80
2023/03/21 01:26:20;;;;;;;3.53;1.43;;;;;;;11.02;54.14;99110.84;5093889;28;42955;-77
2023/03/21 01:28:47;;;;;;;2.07;1.10;;;;;;;11.01;54.10;99106.47;5076610;28;41190;-77
2023/03/21 01:31:17;;;;;;;2.60;1.10;;;;;;;10.98;54.26;99101.38;5077063;28;39257;-79
2023/03/21 01:33:45;;;;;;;2.17;1.57;;;;;;;10.95;54.54;99093.63;5093102;28;42759;-81
2023/03/21 01:36:20;;;;;;;2.13;1.37;;;;;;;10.95;54.47;99098.06;5093712;28;42847;-79
2023/03/21 01:38:49;;;;;;;3.57;1.47;;;;;;;10.89;54.25;99096.63;5076218;28;42857;-80
2023/03/21 01:41:25;;;;;;;2.27;1.27;;;;;;;10.83;54.80;99093.50;5076601;28;38956;-83
2023/03/21 01:43:53;;;;;;;2.10;1.27;;;;;;;10.73;54.88;99093.19;5076459;28;40773;-80
2023/03/21 01:46:40;;;;;;;2.37;1.60;;;;;;;10.66;55.07;99089.19;5076777;28;41719;-80
2023/03/21 01:49:16;;;;;;;2.60;1.50;;;;;;;10.58;55.14;99091.44;5093041;28;42213;-79
2023/03/21 01:51:53;;;;;;;2.07;1.30;;;;;;;10.51;55.28;99085.63;5076799;28;39121;-80
2023/03/21 01:54:26;;;;;;;1.43;1.30;;;;;;;10.46;55.90;99089.50;5076081;28;40778;-79
2023/03/21 01:56:58;;;;;;;2.47;1.53;;;;;;;10.34;55.92;99086.63;5090137;28;42785;-78
2023/03/21 01:59:31;;;;;;;2.27;1.40;;;;;;;10.31;55.64;99083.31;5076137;28;41514;-81
2023/03/21 02:02:21;;;;;;;2.07;1.40;;;;;;;10.27;56.01;99087.06;5093306;28;39878;-82
2023/03/21 02:05:04;;;;;;;2.63;1.53;;;;;;;10.20;56.02;99089.22;5075899;28;40551;-84
2023/03/21 02:07:36;;;;;;;2.03;1.50;;;;;;;10.09;56.45;99073.94;5076259;28;41451;-80
2023/03/21 02:10:11;;;;;;;3.37;1.80;;;;;;;10.16;56.70;99076.22;5094774;28;42998;-79
2023/03/21 02:12:41;;;;;;;2.60;1.60;;;;;;;10.14;56.37;99068.34;5091440;28;41037;-80
2023/03/21 02:15:11;;;;;;;3.23;1.70;;;;;;;10.13;56.56;99073.75;5094204;28;41928;-81
2023/03/21 02:18:10;;;;;;;1.40;1.30;;;;;;;10.08;56.47;99071.38;5091273;28;42907;-81
2023/03/21 02:21:28;;;;;;;2.67;1.30;;;;;;;10.07;56.60;99064.38;5077261;28;41283;-81
2023/03/21 02:24:35;;;;;;;3.10;1.60;;;;;;;10.04;57.51;99056.59;5015696;28;38729;-80
2023/03/21 02:27:10;;;;;;;4.20;2.30;;;;;;;9.97;58.22;99049.97;5075283;28;40775;-81
2023/03/21 02:30:17;;;;;;;6.07;2.13;;;;;;;9.89;58.38;99033.69;5091558;28;42524;-80
2023/03/21 02:33:05;;;;;;;3.10;2.23;;;;;;;9.90;58.13;99045.94;5089599;28;42931;-80
2023/03/21 02:35:48;;;;;;;3.13;2.20;;;;;;;9.76;58.15;99028.22;5076071;28;38782;-79
2023/03/21 02:38:20;;;;;;;3.47;2.30;;;;;;;9.84;58.76;99036.56;5075851;28;40761;-82
2023/03/21 02:40:52;;;;;;;5.03;2.20;;;;;;;9.76;58.72;99028.22;5075898;28;43089;-80
2023/03/21 02:43:30;;;;;;;2.37;2.10;;;;;;;9.78;58.87;99025.47;5092637;28;41461;-78
2023/03/21 02:46:06;;;;;;;4.03;2.20;;;;;;;9.71;58.97;99025.84;5075686;28;38928;-78
2023/03/21 02:48:38;;;;;;;3.13;2.03;;;;;;;9.62;58.60;99034.28;5075369;28;41698;-81
2023/03/21 02:51:10;;;;;;;3.90;2.33;;;;;;;9.59;58.61;99042.38;5089331;28;43887;-80
2023/03/21 02:53:44;;;;;;;3.33;1.90;;;;;;;9.54;58.66;99039.13;5090659;28;42190;-79
2023/03/21 02:56:13;;;;;;;2.60;1.60;;;;;;;9.50;58.41;99037.63;5075696;28;39860;-80
2023/03/21 02:58:47;;;;;;;2.00;1.77;;;;;;;9.51;58.25;99041.97;5089889;28;41588;-78
2023/03/21 03:01:14;;;;;;;2.90;1.80;;;;;;;9.49;58.19;99038.56;5092076;28;42632;-78
2023/03/21 03:03:47;;;;;;;3.30;1.70;;;;;;;9.44;58.54;99030.00;5075099;28;41619;-80
2023/03/21 03:06:19;;;;;;;2.60;2.00;;;;;;;9.37;58.39;99036.59;5093427;28;40027;-81
2023/03/21 03:09:04;;;;;;;2.87;2.00;;;;;;;9.13;58.96;99007.06;5075511;28;40497;-77
2023/03/21 03:11:35;;;;;;;2.03;1.80;;;;;;;9.15;58.62;99033.41;5075509;28;42912;-80
2023/03/21 03:14:15;;;;;;;3.00;1.57;;;;;;;9.00;59.26;99022.72;5074879;28;41215;-80
2023/03/21 03:16:53;;;;;;;2.00;1.70;;;;;;;8.97;59.20;99028.16;5096716;28;39833;-79
2023/03/21 03:19:27;;;;;;;2.93;2.23;;;;;;;8.90;59.66;99029.41;5097377;28;42303;-82
2023/03/21 03:21:59;;;;;;;1.83;1.73;;;;;;;8.81;59.73;99021.97;5075424;28;41976;-78
2023/03/21 03:24:32;;;;;;;1.87;1.67;;;;;;;8.67;59.66;99011.28;5074706;28;41346;-79
2023/03/21 03:27:04;;;;;;;4.33;2.00;;;;;;;8.70;59.74;99029.59;5075326;28;39666;-79
2023/03/21 03:29:38;;;;;;;3.40;1.60;;;;;;;8.58;60.01;99017.03;5074820;28;41639;-82
2023/03/21 03:32:11;;;;;;;3.20;1.93;;;;;;;8.56;60.51;99018.91;5088605;28;44206;-78
2023/03/21 03:34:44;;;;;;;5.43;2.30;;;;;;;8.48;60.63;99018.47;5074901;28;41141;-80
2023/03/21 03:37:16;;;;;;;4.20;2.03;;;;;;;8.25;60.60;98987.94;5074969;28;40113;-79
2023/03/21 03:39:51;;;;;;;3.00;1.80;;;;;;;8.33;61.37;99012.16;5089613;28;41808;-79
2023/03/21 03:42:24;;;;;;;2.93;2.30;;;;;;;8.26;61.05;99016.88;5088873;28;42761;-76
2023/03/21 03:44:58;;;;;;;3.00;1.80;;;;;;;8.17;61.13;99012.06;5074549;28;42337;-83
2023/03/21 03:47:33;;;;;;;2.33;1.70;;;;;;;8.09;60.98;98998.41;5092870;28;41001;-78
2023/03/21 03:50:08;;;;;;;3.47;2.17;;;;;;;8.16;61.31;99020.88;5074378;28;40646;-78
2023/03/21 03:52:39;;;;;;;3.37;2.20;;;;;;;8.03;61.50;98996.09;5074940;28;41794;-81
2023/03/21 03:55:16;;;;;;;3.30;2.10;;;;;;;8.10;61.45;99008.03;5074617;28;41283;-81
2023/03/21 03:57:46;;;;;;;2.83;2.37;;;;;;;8.08;61.25;99015.16;5074906;28;39898;-82
2023/03/21 04:00:16;;;;;;;3.57;2.40;;;;;;;8.05;61.42;99015.31;5075279;28;40800;-81
2023/03/21 04:02:49;;;;;;;3.37;2.10;;;;;;;8.06;61.79;99011.72;5075571;28;41815;-78
2023/03/21 04:05:21;;;;;;;3.03;2.30;;;;;;;8.08;61.58;99012.50;5075788;28;41074;-80
2023/03/21 04:07:50;;;;;;;2.33;2.07;;;;;;;8.14;61.93;99009.59;5075546;28;39082;-81
2023/03/21 04:10:21;;;;;;;2.83;2.30;;;;;;;7.92;61.82;98964.94;5074997;28;40767;-77
2023/03/21 04:12:49;;;;;;;5.20;2.83;;;;;;;8.19;62.61;98997.00;5075131;28;42779;-78
2023/03/21 04:15:40;;;;;;;4.83;2.97;;;;;;;8.26;62.56;99003.69;5081737;28;41270;-78
2023/03/21 04:18:14;;;;;;;4.20;2.57;;;;;;;8.11;62.59;98978.09;5088127;28;39798;-81
2023/03/21 04:20:43;;;;;;;4.03;2.33;;;;;;;8.26;63.12;99002.84;5074343;28;40502;-81
2023/03/21 04:23:11;;;;;;;2.80;2.60;;;;;;;8.22;63.57;98993.38;5090349;28;43550;-82
2023/03/21 04:25:46;;;;;;;4.53;2.47;;;;;;;8.26;62.96;99001.06;5088693;28;43188;-78
2023/03/21 04:28:14;;;;;;;4.33;2.63;;;;;;;8.28;62.78;98996.53;5074041;28;38909;-77
2023/03/21 04:30:50;;;;;;;4.17;2.20;;;;;;;8.31;62.60;98995.53;5074240;28;41721;-80
2023/03/21 04:33:20;;;;;;;3.70;2.57;;;;;;;8.35;62.38;98996.25;5074146;28;41989;-80
2023/03/21 04:35:55;;;;;;;2.47;2.00;;;;;;;8.38;62.44;99004.88;5074038;28;42620;-80
2023/03/21 04:38:29;;;;;;;2.70;2.20;;;;;;;8.41;62.35;99003.84;5091166;28;41585;-78
2023/03/21 04:41:01;;;;;;;3.03;2.20;;;;;;;8.49;62.27;99005.19;5088847;28;42688;-80
2023/03/21 04:43:30;;;;;;;3.37;2.43;;;;;;;8.44;62.30;98999.28;5074256;28;41816;-80
2023/03/21 04:45:58;;;;;;;3.67;2.20;;;;;;;8.59;62.12;99010.84;5073555;28;41176;-80
2023/03/21 04:48:26;;;;;;;4.57;2.50;;;;;;;8.62;62.33;99010.69;5074090;28;40118;-80
2023/03/21 04:50:54;;;;;;;5.50;2.50;;;;;;;8.68;61.97;99010.34;5091751;28;41754;-78
2023/03/21 04:53:22;;;;;;;3.40;2.20;;;;;;;8.71;62.13;99004.91;5094314;28;43586;-81
2023/03/21 04:55:50;;;;;;;2.93;2.10;;;;;;;8.42;62.21;98951.00;5077327;28;41324;-79
2023/03/21 04:58:20;;;;;;;2.73;2.17;;;;;;;8.78;62.00;99000.19;5094170;28;40940;-79
2023/03/21 05:00:48;;;;;;;3.73;2.10;;;;;;;8.81;61.83;99005.28;5094043;28;42025;-80
2023/03/21 05:03:18;;;;;;;2.20;1.80;;;;;;;8.82;61.78;99001.69;5077134;28;42451;-81
2023/03/21 05:05:46;;;;;;;3.20;2.13;;;;;;;8.84;61.75;99003.34;5093906;28;42191;-77
2023/03/21 05:08:15;;;;;;;2.70;2.13;;;;;;;8.74;61.84;98988.91;5094342;28;39373;-82
2023/03/21 05:10:44;;;;;;;2.70;1.70;;;;;;;8.87;61.77;99004.97;5094027;28;42678;-78
2023/03/21 05:13:13;;;;;;;2.10;1.83;;;;;;;8.89;62.06;99014.50;5093959;28;42693;-80
2023/03/21 05:15:42;;;;;;;2.70;2.10;;;;;;;8.90;61.84;99008.28;5093527;28;41101;-79
2023/03/21 05:18:11;;;;;;;3.23;2.17;;;;;;;8.83;61.89;98996.34;5093828;28;39896;-80
2023/03/21 05:20:53;;;;;;;3.90;1.63;;;;;;;8.95;61.80;99000.97;5077257;28;40636;-78
2023/03/21 05:23:21;;;;;;;1.90;1.67;;;;;;;8.96;62.01;99002.69;5076979;28;41806;-80
2023/03/21 05:25:50;;;;;;;3.90;2.30;;;;;;;8.94;62.29;98991.34;5076478;28;40805;-81
2023/03/21 05:28:30;;;;;;;2.23;1.87;;;;;;;8.98;61.93;98998.16;5094013;28;39935;-80
2023/03/21 05:31:01;;;;;;;3.07;2.33;;;;;;;9.01;62.16;99002.44;5091556;28;41712;-81
2023/03/21 05:33:30;;;;;;;3.43;1.93;;;;;;;9.00;62.53;98993.66;5093501;28;43744;-80
2023/03/21 05:35:57;;;;;;;9.40;2.60;;;;;;;8.98;62.69;98982.31;5076349;28;41376;-78
2023/03/21 05:38:30;;;;;;;3.50;2.30;;;;;;;9.02;62.48;98991.75;5076539;28;39997;-81
2023/03/21 05:40:58;;;;;;;3.73;2.43;;;;;;;9.10;62.99;98998.44;5093267;28;42729;-79
2023/03/21 05:43:26;;;;;;;3.53;2.40;;;;;;;9.14;62.45;98992.06;5076470;28;42779;-82
2023/03/21 05:45:54;;;;;;;2.60;1.97;;;;;;;9.17;62.43;98992.72;5076122;28;42156;-78
2023/03/21 05:48:23;;;;;;;4.00;2.30;;;;;;;9.20;62.77;98997.84;5093850;28;40158;-79
2023/03/21 05:51:15;;;;;;;3.73;2.60;;;;;;;9.21;62.58;98996.91;5093191;28;41711;-82
2023/03/21 05:53:42;;;;;;;3.10;2.43;;;;;;;9.21;62.48;98994.28;5076372;28;41465;-79
2023/03/21 05:56:11;;;;;;;3.47;2.43;;;;;;;9.20;62.55;98997.00;5093054;28;43188;-82
2023/03/21 05:58:51;;;;;;;3.30;2.50;;;;;;;9.20;62.84;99002.28;5076648;28;38931;-79
2023/03/21 06:01:19;;;;;;;2.37;1.80;;;;;;;9.12;63.01;98989.50;5076104;28;40766;-77
2023/03/21 06:03:57;;;;;;;3.40;2.27;;;;;;;9.02;63.23;98978.56;5074543;28;42030;-78
2023/03/21 06:06:27;;;;;;;5.13;2.40;;;;;;;9.19;63.01;98995.28;5091446;28;42356;-77
2023/03/21 06:08:57;;;;;;;2.80;2.03;;;;;;;9.29;63.00;99007.91;5093929;28;40967;-79
2023/03/21 06:11:28;;;;;;;3.17;2.60;;;;;;;9.29;62.80;98993.84;5078731;28;40960;-78
2023/03/21 06:14:25;;;;;;;4.03;2.60;;;;;;;9.44;63.54;98995.66;5079470;28;41679;-79
2023/03/21 06:17:12;;;;;;;5.33;3.00;;;;;;;9.54;62.95;99002.13;5091957;28;41184;-76
2023/03/21 06:19:48;;;;;;;4.07;2.80;;;;;;;9.62;62.62;98993.78;5089641;28;40949;-77
2023/03/21 06:22:24;;;;;;;2.20;2.00;;;;;;;9.76;62.76;99001.78;5091972;28;41480;-78
2023/03/21 06:24:52;;;;;;;4.47;2.80;;;;;;;9.52;62.56;98945.00;5092585;28;42794;-77
2023/03/21 06:27:20;;;;;;;4.40;2.40;;;;;;;9.88;62.95;98992.31;5092312;28;43259;-78
2023/03/21 06:29:54;;;;;;;6.77;2.87;;;;;;;9.99;62.65;99003.13;5075484;28;39283;-77
2023/03/21 06:32:23;;;;;;;4.47;3.00;;;;;;;10.01;62.58;98998.59;5075508;28;40434;-78
2023/03/21 06:34:57;;;;;;;2.57;2.33;;;;;;;10.02;63.03;99014.34;5089188;28;43014;-77
2023/03/21 06:37:26;;;;;;;4.37;2.50;;;;;;;9.96;62.88;99004.13;5075102;28;42212;-77
2023/03/21 06:39:55;;;;;;;5.07;3.03;;;;;;;10.04;63.05;99022.19;5075157;28;39280;-78
2023/03/21 06:42:23;;;;;;;4.47;3.17;;;;;;;10.06;63.06;99015.03;5092062;28;41641;-76
2023/03/21 06:44:53;;;;;;;4.30;3.20;;;;;;;9.96;62.87;98992.69;5092430;28;42810;-78
2023/03/21 06:47:21;;;;;;;5.03;3.40;;;;;;;10.06;62.82;99005.31;5075014;28;42186;-77
2023/03/21 06:49:50;;;;;;;4.37;3.20;;;;;;;10.09;62.68;99009.56;5091963;28;39900;-77
2023/03/21 06:52:19;;;;;;;5.23;3.83;;;;;;;10.11;62.78;99006.84;5074874;28;42140;-77
2023/03/21 06:54:47;;;;;;;4.73;4.00;;;;;;;10.16;62.68;99015.34;5074850;28;42804;-77
2023/03/21 06:57:19;;;;;;;5.13;3.77;;;;;;;10.21;62.53;99014.19;5074563;28;41159;-76
2023/03/21 06:59:49;;;;;;;4.17;3.70;;;;;;;10.36;62.71;99007.13;5075013;28;39927;-76
2023/03/21 07:02:22;;;;;;;3.83;3.30;;;;;;;10.86;62.17;99016.50;5074968;28;40660;-76
2023/03/21 07:05:05;;;;;;;4.83;3.70;;;;;;;11.39;60.89;99029.03;5074451;28;41577;-77
2023/03/21 07:07:35;;;;;;;4.57;3.87;;;;;;;12.20;60.34;99030.84;5074289;28;42199;-77
2023/03/21 07:10:03;;;;;;;4.00;3.60;;;;;;;13.05;58.38;99037.44;5074312;28;39982;-78
2023/03/21 07:12:37;;;;;;;4.97;4.10;;;;;;;14.12;55.92;99043.06;5091537;28;42731;-77
2023/03/21 07:15:13;;;;;;;4.07;3.67;;;;;;;15.82;50.56;99030.66;5074717;28;42736;-78
2023/03/21 07:17:43;;;;;;;5.23;3.63;;;;;;;18.21;45.83;99095.72;5074645;28;40942;-78
2023/03/21 07:20:12;;;;;;;4.57;3.07;;;;;;;20.11;42.63;99113.72;5091347;28;39909;-78
2023/03/21 07:22:42;;;;;;;6.50;3.13;;;;;;;21.90;39.33;99130.44;5090152;28;41886;-77
2023/03/21 07:25:10;;;;;;;4.97;3.07;;;;;;;23.44;36.50;99138.06;5092250;28;44232;-77
2023/03/21 07:27:41;;;;;;;4.40;2.40;;;;;;;24.87;34.89;99124.31;5074561;28;41659;-79
2023/03/21 07:30:10;;;;;;;5.10;2.70;;;;;;;26.25;31.79;99163.72;5074819;28;39121;-79
2023/03/21 07:32:39;;;;;;;4.17;2.77;;;;;;;27.25;30.50;99167.44;5091269;28;42039;-78
2023/03/21 07:35:09;;;;;;;4.17;2.63;;;;;;;28.24;28.72;99179.13;5074334;28;41722;-78
2023/03/21 07:37:37;;;;;;;4.05;2.60;;;;;;;28.92;27.63;99172.72;5091069;28;43168;-79
2023/03/21 07:40:09;;;;;;;4.25;2.90;;;;;;;29.54;27.75;99171.59;5074087;28;40011;-78
2023/03/21 07:42:38;;;;;;;4.88;2.85;;;;;;;29.45;27.17;99171.97;5074196;28;41771;-79
2023/03/21 07:45:07;;;;;;;4.28;3.30;;;;;;;29.32;26.92;99172.78;5090955;28;43506;-78
2023/03/21 07:47:35;;;;;;;4.55;2.90;;;;;;;30.08;26.38;99173.22;5090879;28;41464;-79
2023/03/21 07:50:04;;;;;;;5.30;3.45;;;;;;;31.20;24.81;99177.41;5074118;28;39209;-79
2023/03/21 07:52:32;;;;;;;4.20;3.03;;;;;;;30.17;24.97;99177.38;5073702;28;41927;-79
2023/03/21 07:55:00;;;;;;;4.87;3.13;;;;;;;28.23;25.86;99161.09;5090786;28;42703;-81
2023/03/21 07:57:29;;;;;;;4.97;2.70;;;;;;;26.72;26.98;99160.56;5092057;28;42193;-79
2023/03/21 07:59:57;;;;;;;4.93;2.97;;;;;;;25.72;28.46;99154.81;5090958;28;40875;-78
2023/03/21 08:02:25;;;;;;;3.30;2.87;;;;;;;24.89;30.33;99133.09;5073696;28;40838;-78
2023/03/21 08:04:53;;;;;;;5.57;3.17;;;;;;;24.19;30.69;99131.28;5073920;28;41735;-79
2023/03/21 08:07:21;;;;;;;5.17;3.13;;;;;;;23.58;31.45;99131.97;5090626;28;42094;-78
2023/03/21 08:09:49;;;;;;;5.53;2.97;;;;;;;22.75;32.68;99079.97;5090914;28;40057;-78
2023/03/21 08:12:16;;;;;;;3.70;2.90;;;;;;;22.39;33.40;99103.66;5090612;28;42565;-78
2023/03/21 08:14:45;;;;;;;4.00;3.00;;;;;;;21.87;33.94;99106.50;5090684;28;43809;-78
2023/03/21 08:17:14;;;;;;;6.43;2.90;;;;;;;21.53;34.54;99119.94;5073699;28;41480;-78
2023/03/21 08:19:41;;;;;;;4.03;2.77;;;;;;;21.21;35.31;99098.19;5090015;28;40146;-78
2023/03/21 08:22:09;;;;;;;6.33;3.37;;;;;;;21.26;35.74;99096.72;5089994;28;40830;-79
2023/03/21 08:24:37;;;;;;;3.90;2.90;;;;;;;22.02;34.72;99098.66;5073616;28;41757;-79
2023/03/21 08:27:05;;;;;;;4.50;3.03;;;;;;;22.77;34.14;99110.34;5076143;28;41147;-79
2023/03/21 08:29:33;;;;;;;5.13;2.90;;;;;;;22.92;34.26;99098.72;5077293;28;38757;-79
2023/03/21 08:32:02;;;;;;;6.47;3.20;;;;;;;22.94;33.04;99101.25;5095485;28;41779;-78
2023/03/21 08:34:29;;;;;;;3.47;2.60;;;;;;;22.86;33.23;99090.47;5077191;28;41719;-78
2023/03/21 08:36:57;;;;;;;4.00;2.93;;;;;;;22.73;32.89;99109.81;5093940;28;41196;-78
2023/03/21 08:39:25;;;;;;;4.53;2.90;;;;;;;22.39;33.27;99077.53;5093890;28;39625;-78
2023/03/21 08:41:52;;;;;;;4.77;2.93;;;;;;;22.37;33.88;99106.56;5077111;28;40779;-78
2023/03/21 08:44:20;;;;;;;4.07;2.53;;;;;;;22.40;34.18;99103.50;5093961;28;42891;-79
2023/03/21 08:46:48;;;;;;;3.73;2.63;;;;;;;22.47;34.19;99099.16;5093652;28;42440;-79
2023/03/21 08:49:18;;;;;;;3.70;3.10;;;;;;;22.81;33.54;99100.91;5093917;28;41041;-79
2023/03/21 08:51:45;;;;;;;7.37;3.53;;;;;;;23.24;33.08;99103.25;5076695;28;41797;-79
2023/03/21 08:54:20;;;;;;;4.20;3.57;;;;;;;24.88;31.46;99104.31;5093834;28;43646;-78
2023/03/21 08:56:48;;;;;;;3.93;3.27;;;;;;;27.33;28.90;99106.59;5076672;28;41108;-79
2023/03/21 08:59:16;;;;;;;7.03;3.30;;;;;;;29.83;26.30;99137.50;5093658;28;39942;-79
2023/03/21 09:01:44;;;;;;;4.20;3.10;;;;;;;32.31;24.49;99133.66;5098281;28;42645;-80
2023/03/21 09:04:12;;;;;;;3.92;2.65;;;;;;;34.51;22.76;99121.41;5080404;28;42795;-79
2023/03/21 09:06:46;;;;;;;4.57;2.92;;;;;;;34.55;21.06;99158.38;5076356;28;41230;-79
2023/03/21 09:09:14;;;;;;;4.60;3.33;;;;;;;33.62;21.71;99141.09;5091262;28;40025;-79
2023/03/21 09:11:42;;;;;;;3.67;2.80;;;;;;;32.65;22.42;99121.19;5092921;28;41750;-78
2023/03/21 09:14:10;;;;;;;5.40;3.55;;;;;;;32.28;21.86;99140.44;5076440;28;41582;-79
2023/03/21 09:16:38;;;;;;;4.55;3.72;;;;;;;32.40;22.04;99135.00;5093432;28;43115;-79
2023/03/21 09:19:07;;;;;;;4.85;2.88;;;;;;;32.46;21.79;99101.19;5093267;28;40652;-78
2023/03/21 09:21:35;;;;;;;4.85;2.97;;;;;;;32.50;22.11;99124.38;5093575;28;41623;-79
2023/03/21 09:24:06;;;;;;;5.40;2.88;;;;;;;33.26;21.33;99133.88;5094478;28;42785;-79
2023/03/21 09:26:33;;;;;;;6.57;3.20;;;;;;;34.55;20.46;99128.09;5093743;28;41969;-79
2023/03/21 09:29:04;;;;;;;3.60;2.38;;;;;;;35.10;19.67;99135.81;5094908;28;40794;-79
2023/03/21 09:31:32;;;;;;;3.97;2.75;;;;;;;35.19;19.39;99128.81;5093141;28;40479;-79
2023/03/21 09:34:00;;;;;;;3.75;2.75;;;;;;;34.82;19.11;99133.06;5093424;28;43717;-80
2023/03/21 09:36:29;;;;;;;3.80;2.63;;;;;;;34.24;19.60;99129.38;5075541;28;41399;-79
2023/03/21 09:38:57;;;;;;;5.00;3.13;;;;;;;34.13;20.52;99115.63;5092033;28;41568;-80
2023/03/21 09:41:37;;;;;;;3.92;2.65;;;;;;;35.14;19.59;99109.44;5075629;28;41045;-80
2023/03/21 09:44:18;;;;;;;4.10;2.67;;;;;;;35.50;19.21;99123.81;5091154;28;42809;-80
2023/03/21 09:46:53;;;;;;;3.78;2.30;;;;;;;35.41;19.36;99123.41;5075833;28;41480;-79
2023/03/21 09:49:29;;;;;;;4.85;2.60;;;;;;;35.34;19.01;99110.91;5092663;28;38842;-79
2023/03/21 09:52:02;;;;;;;3.97;3.08;;;;;;;34.90;18.98;99128.00;5075984;28;41670;-81
2023/03/21 09:54:35;;;;;;;4.93;2.38;;;;;;;34.95;18.92;99130.00;5090670;28;42710;-80
2023/03/21 09:57:14;;;;;;;3.20;2.42;;;;;;;34.83;19.10;99123.72;5090284;28;42332;-80
2023/03/21 09:59:43;;;;;;;3.58;2.60;;;;;;;34.70;19.26;99115.75;5090137;28;40014;-79
2023/03/21 10:02:31;;;;;;;6.32;2.67;;;;;;;35.01;18.96;99114.41;5075503;28;40951;-79
2023/03/21 10:05:00;;;;;;;5.28;2.72;;;;;;;35.19;18.76;99109.53;5088790;28;42832;-79
2023/03/21 10:07:32;;;;;;;5.30;2.67;;;;;;;35.11;19.13;99101.69;5092452;28;42272;-80
2023/03/21 10:10:03;;;;;;;4.82;2.75;;;;;;;36.04;18.01;99113.09;5092439;28;38889;-79
2023/03/21 10:12:32;;;;;;;5.90;2.75;;;;;;;37.25;16.57;99116.47;5092192;28;40809;-80
2023/03/21 10:15:04;;;;;;;4.22;2.60;;;;;;;38.23;16.94;99108.63;5074010;28;41714;-79
2023/03/21 10:17:39;;;;;;;3.63;2.30;;;;;;;37.89;16.66;99086.03;5075236;28;41175;-79
2023/03/21 10:20:14;;;;;;;4.22;2.15;;;;;;;38.28;16.32;99094.84;5088959;28;40802;-81
2023/03/21 10:22:44;;;;;;;4.32;2.50;;;;;;;38.92;15.13;99091.72;5089864;28;42463;-80
2023/03/21 10:25:17;;;;;;;3.67;2.20;;;;;;;39.35;15.62;99088.44;5092201;28;42952;-80
2023/03/21 10:27:48;;;;;;;3.75;2.70;;;;;;;40.28;15.05;99093.59;5089505;28;42299;-81
2023/03/21 10:30:26;;;;;;;3.40;1.85;;;;;;;41.67;13.91;99095.22;5089586;28;40835;-81
2023/03/21 10:32:57;;;;;;;3.17;1.80;;;;;;;43.03;13.97;99078.75;5090070;28;42512;-80
2023/03/21 10:35:25;;;;;;;4.07;2.10;;;;;;;43.59;12.70;99089.03;5074959;28;43117;-80
2023/03/21 10:37:53;;;;;;;4.82;2.08;;;;;;;42.89;13.57;99084.28;5091550;28;42568;-80
2023/03/21 10:40:21;;;;;;;4.07;2.00;;;;;;;41.80;13.75;99067.50;5093208;28;40927;-80
2023/03/21 10:42:51;;;;;;;5.03;1.70;;;;;;;41.34;14.03;99066.28;5091875;28;40690;-81
2023/03/21 10:45:23;;;;;;;2.58;1.90;;;;;;;41.31;14.49;99062.13;5093487;28;42379;-80
2023/03/21 10:47:54;;;;;;;3.78;1.70;;;;;;;41.24;14.55;99047.75;5089355;28;43258;-78
2023/03/21 10:50:26;;;;;;;2.40;1.70;;;;;;;40.51;14.81;99056.00;5075104;28;38883;-79
2023/03/21 10:52:59;;;;;;;3.50;2.15;;;;;;;39.67;15.36;99041.03;5074566;28;40744;-81
2023/03/21 10:55:30;;;;;;;2.80;1.98;;;;;;;40.27;15.17;99038.34;5090233;28;43706;-81
2023/03/21 10:58:06;;;;;;;4.40;2.05;;;;;;;40.96;15.04;99051.28;5092005;28;42189;-82
2023/03/21 11:00:37;;;;;;;4.38;1.70;;;;;;;41.24;14.46;99043.03;5075016;28;40010;-82
2023/03/21 11:03:06;;;;;;;4.93;2.30;;;;;;;41.27;14.75;99036.06;5088552;28;42676;-80
2023/03/21 11:05:39;;;;;;;2.83;1.70;;;;;;;41.05;14.57;99049.56;5091946;28;43474;-81
2023/03/21 11:08:13;;;;;;;2.90;1.63;;;;;;;40.61;14.93;99047.63;5089440;28;42360;-79
2023/03/21 11:10:53;;;;;;;3.50;2.10;;;;;;;39.93;15.48;99044.59;5091762;28;39949;-80
2023/03/21 11:13:26;;;;;;;2.63;2.08;;;;;;;39.12;15.82;99028.88;5074633;28;41874;-80
2023/03/21 11:15:58;;;;;;;2.85;2.10;;;;;;;38.24;16.06;99036.44;5090721;28;42632;-80
2023/03/21 11:18:31;;;;;;;3.70;2.33;;;;;;;37.13;16.99;99022.72;5074691;28;41228;-79
2023/03/21 11:21:04;;;;;;;2.50;2.13;;;;;;;36.18;17.57;99023.38;5091505;28;40934;-78
2023/03/21 11:23:36;;;;;;;3.72;1.90;;;;;;;35.13;18.60;99014.13;5091590;28;41832;-79
2023/03/21 11:26:10;;;;;;;2.50;1.88;;;;;;;34.05;19.17;99012.38;5074495;28;41651;-79
2023/03/21 11:28:43;;;;;;;1.92;1.50;;;;;;;33.28;19.79;98997.19;5092288;28;20260;-79
2023/03/21 11:31:11;;;;;;;2.83;2.00;;;;;;;32.51;20.04;98988.94;5091005;28;39726;-78
2023/03/21 11:33:43;;;;;;;4.13;2.23;;;;;;;31.78;20.71;98989.88;5074265;28;40621;-78
2023/03/21 11:36:27;;;;;;;3.17;1.70;;;;;;;31.25;21.07;98966.88;5074383;28;41967;-80
2023/03/21 11:38:58;;;;;;;2.47;1.90;;;;;;;31.11;21.99;98971.63;5073876;28;42302;-79
2023/03/21 11:41:30;;;;;;;3.33;1.83;;;;;;;30.93;22.29;98964.19;5091008;28;38885;-78
2023/03/21 11:44:01;;;;;;;3.90;2.33;;;;;;;30.46;22.08;98945.59;5091087;28;42253;-78
2023/03/21 11:46:31;;;;;;;4.17;2.17;;;;;;;30.12;22.75;98955.09;5091171;28;42701;-79
2023/03/21 11:49:00;;;;;;;4.87;2.10;;;;;;;29.75;23.39;98948.53;5091136;28;42173;-79
2023/03/21 11:51:38;;;;;;;3.57;2.17;;;;;;;29.44;23.66;98950.09;5094775;28;41136;-77
2023/03/21 11:54:12;;;;;;;2.60;2.10;;;;;;;29.33;24.00;98941.69;5100557;28;42189;-79
2023/03/21 11:56:44;;;;;;;3.13;2.03;;;;;;;29.18;24.08;98942.78;5076829;28;41564;-78
2023/03/21 11:59:30;;;;;;;5.33;2.20;;;;;;;28.89;24.32;98935.91;5074494;28;42391;-79